createdAt,value
2022-08-21T00:01:37.482Z,13.90
2022-08-21T00:06:40.709Z,13.90
2022-08-21T00:11:35.794Z,13.11
2022-08-21T00:16:35.138Z,13.90
2022-08-21T00:21:34.482Z,13.90
2022-08-21T00:26:34.667Z,12.93
2022-08-21T00:31:32.767Z,13.48
2022-08-21T00:36:32.127Z,13.48
2022-08-21T00:41:38.205Z,14.09
2022-08-21T00:46:30.454Z,13.30
2022-08-21T00:51:29.801Z,12.93
2022-08-21T00:56:29.964Z,12.93
2022-08-21T01:01:29.182Z,13.48
2022-08-21T01:06:27.319Z,13.30
2022-08-21T01:11:27.646Z,13.30
2022-08-21T01:16:25.938Z,12.93
2022-08-21T01:21:28.680Z,13.30
2022-08-21T01:26:24.465Z,13.48
2022-08-21T01:31:25.984Z,12.93
2022-08-21T01:36:23.987Z,14.09
2022-08-21T01:41:22.283Z,13.48
2022-08-21T01:46:21.602Z,13.91
2022-08-21T01:51:20.926Z,13.70
2022-08-21T01:56:20.260Z,13.29
2022-08-21T02:01:19.462Z,13.70
2022-08-21T02:06:19.618Z,13.52
2022-08-21T02:11:18.781Z,13.52
2022-08-21T02:16:19.385Z,13.52
2022-08-21T02:21:16.118Z,13.13
2022-08-21T02:26:16.256Z,12.93
2022-08-21T02:31:15.572Z,13.52
2022-08-21T02:36:13.884Z,13.91
2022-08-21T02:41:14.159Z,13.70
2022-08-21T02:46:12.487Z,12.74
2022-08-21T02:51:11.904Z,13.52
2022-08-21T02:56:11.031Z,12.93
2022-08-21T03:01:10.380Z,12.93
2022-08-21T03:06:10.489Z,12.74
2022-08-21T03:11:10.800Z,13.52
2022-08-21T03:16:09.795Z,12.93
2022-08-21T03:21:08.328Z,13.11
2022-08-21T03:26:07.457Z,12.55
2022-08-21T03:31:07.738Z,13.62
2022-08-21T03:36:05.075Z,13.40
2022-08-21T03:41:06.204Z,13.18
2022-08-21T03:46:04.544Z,13.62
2022-08-21T03:51:04.629Z,13.84
2022-08-21T03:56:02.937Z,12.53
2022-08-21T04:01:02.336Z,12.94
2022-08-21T04:06:00.468Z,12.55
2022-08-21T04:11:00.612Z,12.55
2022-08-21T04:15:58.733Z,12.74
2022-08-21T04:20:57.174Z,12.93
2022-08-21T04:25:58.378Z,12.74
2022-08-21T04:30:57.509Z,12.74
2022-08-21T04:35:58.986Z,11.95
2022-08-21T04:40:55.072Z,12.13
2022-08-21T04:45:54.385Z,12.93
2022-08-21T04:50:54.686Z,12.13
2022-08-21T04:55:53.968Z,12.93
2022-08-21T05:00:52.278Z,12.74
2022-08-21T05:05:51.611Z,11.95
2022-08-21T05:10:51.719Z,12.13
2022-08-21T05:15:50.992Z,11.95
2022-08-21T05:20:50.285Z,12.13
2022-08-21T05:25:48.572Z,11.95
2022-08-21T05:30:46.857Z,12.13
2022-08-21T05:35:47.165Z,12.93
2022-08-21T05:40:49.594Z,12.93
2022-08-21T05:45:46.753Z,13.48
2022-08-21T05:50:45.048Z,13.48
2022-08-21T05:55:46.222Z,13.11
2022-08-21T06:00:43.685Z,13.48
2022-08-21T06:05:43.050Z,14.09
2022-08-21T06:10:42.132Z,14.09
2022-08-21T06:15:59.431Z,14.09
2022-08-21T06:20:40.643Z,13.52
2022-08-21T06:25:42.046Z,13.71
2022-08-21T06:30:40.129Z,13.33
2022-08-21T06:35:41.470Z,13.90
2022-08-21T06:40:39.046Z,13.71
2022-08-21T06:45:36.830Z,14.50
2022-08-21T06:50:36.180Z,14.30
2022-08-21T06:55:37.296Z,13.91
2022-08-21T07:00:36.606Z,13.50
2022-08-21T07:05:33.963Z,13.50
2022-08-21T07:10:33.129Z,14.26
2022-08-21T07:15:32.439Z,14.26
2022-08-21T07:20:32.929Z,13.84
2022-08-21T07:25:31.070Z,14.36
2022-08-21T07:30:32.277Z,13.68
2022-08-21T07:35:29.465Z,14.17
2022-08-21T07:40:29.609Z,13.68
2022-08-21T07:45:26.728Z,13.45
2022-08-21T07:50:27.095Z,14.17
2022-08-21T07:55:28.273Z,14.17
2022-08-21T08:00:25.407Z,14.17
2022-08-21T08:05:24.759Z,13.93
2022-08-21T08:10:23.685Z,13.91
2022-08-21T08:15:25.037Z,13.68
2022-08-21T08:20:22.159Z,13.68
2022-08-21T08:25:22.579Z,13.68
2022-08-21T08:30:21.818Z,14.40
2022-08-21T08:35:26.201Z,15.54
2022-08-21T08:40:20.380Z,14.64
2022-08-21T08:45:18.404Z,14.17
2022-08-21T08:50:18.778Z,13.93
2022-08-21T08:55:17.888Z,14.17
2022-08-21T09:00:16.198Z,13.93
2022-08-21T09:05:17.518Z,14.17
2022-08-21T09:10:14.648Z,14.64
2022-08-21T09:15:15.012Z,14.17
2022-08-21T09:20:14.139Z,14.63
2022-08-21T09:25:13.400Z,13.93
2022-08-21T09:30:11.695Z,13.93
2022-08-21T09:35:11.020Z,15.12
2022-08-21T09:40:11.377Z,14.13
2022-08-21T09:45:13.551Z,13.93
2022-08-21T09:50:08.883Z,13.19
2022-08-21T09:55:11.051Z,14.13
2022-08-21T10:00:10.331Z,14.38
2022-08-21T10:05:06.474Z,14.63
2022-08-21T10:10:05.649Z,14.38
2022-08-21T10:15:08.611Z,14.38
2022-08-21T10:20:03.976Z,14.63
2022-08-21T10:25:03.114Z,14.63
2022-08-21T10:30:02.446Z,14.63
2022-08-21T10:35:01.599Z,14.87
2022-08-21T10:40:00.797Z,14.87
2022-08-21T10:44:59.894Z,14.87
2022-08-21T10:50:00.243Z,14.87
2022-08-21T10:54:59.572Z,15.35
2022-08-21T10:59:58.886Z,15.12
2022-08-21T11:04:57.206Z,14.87
2022-08-21T11:09:56.522Z,14.87
2022-08-21T11:14:56.840Z,14.13
2022-08-21T11:19:54.933Z,15.07
2022-08-21T11:24:54.326Z,14.55
2022-08-21T11:29:53.508Z,14.55
2022-08-21T11:34:53.621Z,14.55
2022-08-21T11:39:52.018Z,14.55
2022-08-21T11:44:53.097Z,14.55
2022-08-21T11:49:51.446Z,14.55
2022-08-21T11:54:51.855Z,14.55
2022-08-21T11:59:48.810Z,14.29
2022-08-21T12:04:49.924Z,14.29
2022-08-21T12:09:47.198Z,14.02
2022-08-21T12:14:46.600Z,13.75
2022-08-21T12:19:45.737Z,13.75
2022-08-21T12:24:45.844Z,13.47
2022-08-21T12:29:45.155Z,12.90
2022-08-21T12:34:44.461Z,13.47
2022-08-21T12:39:42.847Z,13.19
2022-08-21T12:44:41.934Z,12.90
2022-08-21T12:49:41.252Z,12.90
2022-08-21T12:54:40.577Z,14.12
2022-08-21T12:59:40.742Z,13.83
2022-08-21T13:04:40.815Z,13.83
2022-08-21T13:09:39.171Z,13.53
2022-08-21T13:14:45.785Z,13.53
2022-08-21T13:19:36.550Z,13.24
2022-08-21T13:24:43.729Z,13.24
2022-08-21T13:29:35.944Z,13.24
2022-08-21T13:34:35.246Z,13.24
2022-08-21T13:39:34.376Z,12.93
2022-08-21T13:44:31.717Z,12.93
2022-08-21T13:49:32.872Z,13.24
2022-08-21T13:54:30.981Z,12.62
2022-08-21T13:59:29.298Z,12.62
2022-08-21T14:04:29.657Z,12.31
2022-08-21T14:09:28.770Z,12.93
2022-08-21T14:14:29.078Z,12.93
2022-08-21T14:19:27.452Z,12.62
2022-08-21T14:24:26.556Z,11.99
2022-08-21T14:29:26.872Z,12.31
2022-08-21T14:34:27.181Z,11.33
2022-08-21T14:39:26.313Z,10.99
2022-08-21T14:44:23.661Z,11.66
2022-08-21T14:49:23.810Z,11.33
2022-08-21T14:54:22.501Z,11.66
2022-08-21T14:59:21.314Z,10.99
2022-08-21T15:04:20.420Z,9.93
2022-08-21T15:09:19.566Z,10.29
2022-08-21T15:14:17.903Z,10.65
2022-08-21T15:19:19.036Z,11.33
2022-08-21T15:24:17.169Z,11.99
2022-08-21T15:29:22.507Z,11.99
2022-08-21T15:34:15.680Z,12.31
2022-08-21T15:39:16.867Z,12.31
2022-08-21T15:44:13.981Z,12.31
2022-08-21T15:49:13.116Z,12.31
2022-08-21T15:54:12.506Z,12.31
2022-08-21T15:59:12.642Z,12.31
2022-08-21T16:04:11.976Z,12.62
2022-08-21T16:09:10.267Z,12.62
2022-08-21T16:14:09.579Z,12.62
2022-08-21T16:19:08.885Z,12.62
2022-08-21T16:24:08.177Z,12.62
2022-08-21T16:29:08.509Z,12.62
2022-08-21T16:34:06.816Z,12.62
2022-08-21T16:39:06.128Z,12.62
2022-08-21T16:44:05.464Z,12.62
2022-08-21T16:49:06.595Z,12.62
2022-08-21T16:54:03.922Z,12.62
2022-08-21T16:59:04.245Z,12.62
2022-08-21T17:04:03.589Z,12.62
2022-08-21T17:09:02.909Z,12.62
2022-08-21T17:14:01.258Z,12.62
2022-08-21T17:19:01.376Z,12.62
2022-08-21T17:23:59.713Z,12.62
2022-08-21T17:28:58.822Z,12.62
2022-08-21T17:33:58.161Z,12.93
2022-08-21T17:38:59.469Z,12.93
2022-08-21T17:43:56.807Z,12.93
2022-08-21T17:48:55.942Z,12.93
2022-08-21T17:53:56.293Z,13.53
2022-08-21T17:58:54.420Z,12.93
2022-08-21T18:03:53.756Z,12.93
2022-08-21T18:08:54.896Z,13.24
2022-08-21T18:13:52.226Z,13.24
2022-08-21T18:18:53.568Z,13.24
2022-08-21T18:23:50.867Z,13.24
2022-08-21T18:28:50.173Z,12.93
2022-08-21T18:33:58.147Z,13.24
2022-08-21T18:38:48.692Z,14.12
2022-08-21T18:43:48.006Z,14.40
2022-08-21T18:48:47.299Z,14.40
2022-08-21T18:53:46.785Z,14.40
2022-08-21T18:58:46.110Z,13.47
2022-08-21T19:03:45.438Z,13.75
2022-08-21T19:08:44.758Z,13.75
2022-08-21T19:13:43.685Z,13.75
2022-08-21T19:18:43.013Z,13.47
2022-08-21T19:23:43.348Z,13.75
2022-08-21T19:28:44.788Z,14.02
2022-08-21T19:33:40.900Z,14.02
2022-08-21T19:38:40.197Z,14.02
2022-08-21T19:43:39.392Z,13.75
2022-08-21T19:48:40.714Z,14.02
2022-08-21T19:53:40.703Z,14.02
2022-08-21T19:58:37.239Z,13.35
2022-08-21T20:03:36.402Z,14.02
2022-08-21T20:08:36.467Z,13.09
2022-08-21T20:13:34.730Z,12.82
2022-08-21T20:18:34.077Z,13.09
2022-08-21T20:23:34.086Z,13.35
2022-08-21T20:28:32.367Z,13.75
2022-08-21T20:33:31.535Z,14.02
2022-08-21T20:38:30.661Z,13.09
2022-08-21T20:43:29.755Z,13.09
2022-08-21T20:48:30.112Z,13.62
2022-08-21T20:53:43.565Z,13.62
2022-08-21T20:58:29.678Z,13.62
2022-08-21T21:08:27.043Z,13.62
2022-08-21T21:13:25.342Z,13.62
2022-08-21T21:18:24.699Z,13.62
2022-08-21T21:23:24.926Z,13.62
2022-08-21T21:28:23.236Z,13.62
2022-08-21T21:33:23.594Z,13.88
2022-08-21T21:38:21.739Z,13.88
2022-08-21T21:43:20.882Z,13.88
2022-08-21T21:48:21.304Z,13.88
2022-08-21T21:53:19.336Z,13.88
2022-08-21T21:58:17.765Z,13.88
2022-08-21T22:03:16.880Z,13.88
2022-08-21T22:08:17.177Z,13.19
2022-08-21T22:18:16.009Z,12.94
2022-08-21T22:23:15.970Z,13.88
2022-08-21T22:28:14.288Z,12.94
2022-08-21T22:33:14.545Z,12.94
2022-08-21T22:38:13.662Z,12.94
2022-08-21T22:43:11.992Z,12.94
2022-08-21T22:48:11.255Z,13.62
2022-08-21T22:53:11.650Z,12.94
2022-08-21T22:58:10.750Z,13.62
2022-08-21T23:03:16.477Z,12.68
2022-08-21T23:08:09.835Z,12.68
2022-08-21T23:13:09.678Z,12.68
2022-08-21T23:18:06.629Z,13.62
2022-08-21T23:23:06.034Z,12.68
2022-08-21T23:28:06.149Z,12.94
2022-08-21T23:33:07.321Z,13.62
2022-08-21T23:38:09.331Z,12.68
2022-08-21T23:43:03.052Z,12.68
2022-08-21T23:48:02.120Z,12.68
2022-08-21T23:53:08.888Z,12.94
2022-08-21T23:58:00.488Z,12.94
